Time;durP1;ratioP1;P1;durP2;ratioP2;P2;SDS_P1;SDS_P2;PMS_P1;PMS_P2;Temp;Humidity;BMP_temperature;BMP_pressure;BME280_temperature;BME280_humidity;BME280_pressure;Samples;Min_cycle;Max_cycle;Signal;HPM_P1;HPM_P2
2021/10/19 00:02:15;;;;;;;7.25;5.50;;;;;;;7.28;100.00;97104.47;6421901;46;20087;-70
2021/10/19 00:07:17;;;;;;;5.30;4.45;;;;;;;7.21;100.00;97083.38;6420853;46;20091;-71
2021/10/19 00:12:20;;;;;;;6.13;4.95;;;;;;;7.00;100.00;97086.53;6427221;46;20185;-71
2021/10/19 00:17:23;;;;;;;7.53;5.88;;;;;;;6.98;100.00;97094.41;6424625;46;20157;-70
2021/10/19 00:22:25;;;;;;;5.68;5.07;;;;;;;6.98;100.00;97097.16;6412415;46;20099;-70
2021/10/19 00:27:28;;;;;;;7.47;6.40;;;;;;;7.11;100.00;97096.13;6409078;46;20134;-69
2021/10/19 00:32:30;;;;;;;5.93;5.15;;;;;;;7.22;100.00;97096.69;6421365;46;20086;-70
2021/10/19 00:37:33;;;;;;;6.72;5.25;;;;;;;7.14;99.98;97089.03;6421460;46;20085;-70
2021/10/19 00:42:36;;;;;;;6.30;5.00;;;;;;;6.93;99.53;97076.44;6409333;46;20107;-71
2021/10/19 00:47:50;;;;;;;10.07;5.43;;;;;;;6.88;99.42;97076.91;6409493;46;20072;-70
2021/10/19 00:52:55;;;;;;;5.80;5.00;;;;;;;6.73;99.71;97085.81;6422411;46;20289;-70
2021/10/19 00:58:00;;;;;;;7.50;5.30;;;;;;;6.77;99.54;97070.84;6408641;46;20090;-72
2021/10/19 01:03:03;;;;;;;6.82;5.40;;;;;;;6.59;100.00;97070.38;6409051;46;20292;-71
2021/10/19 01:08:06;;;;;;;6.50;5.30;;;;;;;6.50;100.00;97076.41;6421153;46;20555;-70
2021/10/19 01:13:09;;;;;;;6.13;5.53;;;;;;;6.30;99.88;97066.53;6408761;46;20190;-70
2021/10/19 01:18:15;;;;;;;5.97;5.07;;;;;;;6.20;100.00;97065.50;6408480;46;20111;-71
2021/10/19 01:23:17;;;;;;;6.95;4.95;;;;;;;6.07;100.00;97064.50;6420079;46;20190;-71
2021/10/19 01:28:21;;;;;;;5.47;4.85;;;;;;;5.88;100.00;97070.66;6408682;46;20136;-69
2021/10/19 01:33:23;;;;;;;6.40;5.38;;;;;;;5.82;100.00;97070.31;6420732;46;20078;-71
2021/10/19 01:38:29;;;;;;;6.00;5.40;;;;;;;5.73;100.00;97072.81;6420630;46;20497;-70
2021/10/19 01:43:31;;;;;;;6.00;4.95;;;;;;;5.76;100.00;97076.69;6408180;46;20090;-71
2021/10/19 01:48:34;;;;;;;5.90;5.30;;;;;;;5.67;100.00;97079.94;6420440;46;20113;-69
2021/10/19 01:53:36;;;;;;;5.85;5.25;;;;;;;5.61;100.00;97073.34;6433612;46;20086;-72
2021/10/19 01:58:39;;;;;;;6.53;5.28;;;;;;;5.51;100.00;97062.53;6420748;46;20153;-71
2021/10/19 02:03:41;;;;;;;6.18;5.10;;;;;;;5.58;100.00;97056.94;6432437;46;20203;-70
2021/10/19 02:08:44;;;;;;;5.38;4.65;;;;;;;5.34;99.85;97050.59;6428129;46;20141;-74
2021/10/19 02:13:46;;;;;;;5.18;4.68;;;;;;;5.32;100.00;97052.97;6450380;45;20095;-71
2021/10/19 02:18:48;;;;;;;5.10;4.60;;;;;;;5.24;99.48;97050.72;6422044;46;20103;-69
2021/10/19 02:23:51;;;;;;;5.38;4.65;;;;;;;5.13;99.85;97053.59;6411274;46;20091;-70
2021/10/19 02:28:53;;;;;;;4.53;4.13;;;;;;;5.00;100.00;97036.88;6421962;46;20091;-70
2021/10/19 02:33:56;;;;;;;5.30;4.68;;;;;;;5.06;100.00;97037.22;6435070;46;20184;-70
2021/10/19 02:38:59;;;;;;;5.10;4.57;;;;;;;5.06;99.97;97035.28;6421904;46;20086;-71
2021/10/19 02:44:03;;;;;;;4.93;4.35;;;;;;;5.00;99.33;97005.97;6422132;46;20116;-71
2021/10/19 02:49:05;;;;;;;4.65;4.03;;;;;;;4.94;98.75;97013.88;6421802;46;20095;-70
2021/10/19 02:54:10;;;;;;;5.20;3.92;;;;;;;5.00;98.28;97011.47;6409725;46;20685;-71
2021/10/19 02:59:13;;;;;;;4.50;3.88;;;;;;;4.83;98.29;97005.00;6409635;46;20078;-70
2021/10/19 03:04:15;;;;;;;4.70;4.25;;;;;;;4.68;98.71;96997.38;6421533;46;20245;-70
2021/10/19 03:09:18;;;;;;;5.07;3.85;;;;;;;4.58;98.49;97001.75;6409024;46;20095;-70
2021/10/19 03:14:20;;;;;;;4.68;4.28;;;;;;;4.59;99.11;97006.03;6421348;46;20284;-71
2021/10/19 03:19:23;;;;;;;5.00;4.40;;;;;;;4.62;99.07;97009.91;6409510;46;20125;-71
2021/10/19 03:24:25;;;;;;;5.43;4.15;;;;;;;4.65;99.39;97020.06;6434570;46;20174;-71
2021/10/19 03:29:28;;;;;;;4.32;3.92;;;;;;;4.69;99.30;97018.84;6421481;46;20179;-71
2021/10/19 03:34:30;;;;;;;4.10;3.72;;;;;;;4.65;99.59;97015.38;6421737;46;20213;-71
2021/10/19 03:39:33;;;;;;;5.00;4.43;;;;;;;4.74;98.81;97018.41;6421467;46;20180;-70
2021/10/19 03:44:35;;;;;;;3.80;3.50;;;;;;;4.64;98.70;97029.44;6424526;46;20240;-69
2021/10/19 03:49:38;;;;;;;5.65;4.57;;;;;;;4.56;99.25;97025.22;6425165;46;20198;-70
2021/10/19 03:54:40;;;;;;;6.32;4.10;;;;;;;4.57;99.25;97019.34;6448477;46;20125;-69
2021/10/19 03:59:42;;;;;;;5.13;3.72;;;;;;;4.48;99.14;97026.50;6438072;46;20529;-70
2021/10/19 04:04:45;;;;;;;4.88;4.40;;;;;;;4.43;99.49;97032.41;6421499;46;20108;-70
2021/10/19 04:09:49;;;;;;;4.63;3.85;;;;;;;4.47;99.57;97044.88;6421116;46;20108;-70
2021/10/19 04:14:51;;;;;;;5.20;4.05;;;;;;;4.39;99.57;97050.81;6421041;46;20191;-71
2021/10/19 04:19:54;;;;;;;4.80;4.30;;;;;;;4.58;99.93;97052.97;6409128;46;20715;-69
2021/10/19 04:24:56;;;;;;;4.30;3.67;;;;;;;4.52;99.32;97069.06;6408417;46;20191;-71
2021/10/19 04:29:59;;;;;;;4.35;3.78;;;;;;;4.56;98.90;97090.91;6421057;46;20204;-71
2021/10/19 04:35:02;;;;;;;5.30;3.72;;;;;;;4.54;98.84;97085.06;6421532;46;20559;-70
2021/10/19 04:40:05;;;;;;;6.25;4.10;;;;;;;4.72;98.47;97086.47;6434187;46;20297;-70
2021/10/19 04:45:08;;;;;;;4.82;3.90;;;;;;;4.62;98.83;97078.34;6421186;46;20720;-71
2021/10/19 04:50:10;;;;;;;4.47;3.92;;;;;;;4.68;98.66;97072.03;6420884;46;20660;-71
2021/10/19 04:55:13;;;;;;;4.57;3.88;;;;;;;4.78;97.82;97073.91;6408531;46;20159;-71
2021/10/19 05:00:16;;;;;;;4.55;4.13;;;;;;;4.66;98.08;97065.44;6420456;46;20181;-69
2021/10/19 05:05:19;;;;;;;4.15;3.63;;;;;;;4.58;98.71;97058.44;6408230;46;20744;-69
2021/10/19 05:10:22;;;;;;;4.90;3.65;;;;;;;4.65;97.90;97066.59;6408343;46;20719;-71
2021/10/19 05:15:25;;;;;;;4.43;3.67;;;;;;;4.53;98.41;97061.63;6408401;46;20196;-70
2021/10/19 05:20:28;;;;;;;3.70;3.30;;;;;;;4.71;97.76;97057.53;6408869;46;20104;-71
2021/10/19 05:25:30;;;;;;;3.85;3.22;;;;;;;4.61;97.22;97057.66;6421330;46;20125;-70
2021/10/19 05:30:33;;;;;;;3.88;3.42;;;;;;;4.64;97.77;97045.88;6410964;46;20163;-70
2021/10/19 05:35:36;;;;;;;5.93;3.83;;;;;;;4.71;97.58;97059.50;6420631;46;20236;-71
2021/10/19 05:40:38;;;;;;;6.80;4.00;;;;;;;4.61;98.20;97071.34;6408004;46;20673;-70
2021/10/19 05:45:40;;;;;;;4.32;3.92;;;;;;;4.79;98.80;97063.72;6433759;46;20241;-71
2021/10/19 05:50:43;;;;;;;4.20;3.47;;;;;;;4.92;98.26;97064.75;6408681;46;20095;-71
2021/10/19 05:55:46;;;;;;;5.82;4.25;;;;;;;5.04;98.88;97070.50;6420341;46;20516;-71
2021/10/19 06:00:49;;;;;;;4.75;4.05;;;;;;;5.28;99.12;97063.19;6433437;46;20129;-71
2021/10/19 06:05:55;;;;;;;5.47;4.07;;;;;;;5.39;98.97;97046.63;6432698;46;20518;-70
2021/10/19 06:10:59;;;;;;;5.50;4.28;;;;;;;5.71;98.11;97046.97;6409132;46;20498;-71
2021/10/19 06:16:01;;;;;;;5.05;3.50;;;;;;;6.04;96.60;97046.13;6434489;46;20115;-69
2021/10/19 06:21:04;;;;;;;5.50;3.85;;;;;;;6.13;96.40;97051.13;6421621;46;20120;-71
2021/10/19 06:26:06;;;;;;;5.63;4.35;;;;;;;6.36;96.26;97037.41;6408847;46;20612;-69
2021/10/19 06:31:09;;;;;;;4.15;3.75;;;;;;;6.58;96.66;97044.09;6421625;46;20814;-69
2021/10/19 06:36:11;;;;;;;4.68;3.40;;;;;;;6.74;96.69;97044.19;6421720;46;20098;-69
2021/10/19 06:41:14;;;;;;;3.97;3.13;;;;;;;6.94;96.03;97044.25;6434904;46;20240;-70
2021/10/19 06:46:16;;;;;;;8.52;3.40;;;;;;;7.10;96.42;97041.59;6438456;46;20073;-71
2021/10/19 06:51:19;;;;;;;4.50;3.00;;;;;;;7.26;97.07;97033.41;6455899;46;20170;-71
2021/10/19 06:56:21;;;;;;;3.50;2.60;;;;;;;7.51;95.98;97049.41;6434770;46;20090;-70
2021/10/19 07:01:24;;;;;;;2.70;2.50;;;;;;;7.86;95.33;97060.44;6422120;46;20081;-71
2021/10/19 07:06:27;;;;;;;3.17;2.75;;;;;;;7.99;97.02;97071.56;6420991;46;20225;-71
2021/10/19 07:11:30;;;;;;;3.63;3.03;;;;;;;8.36;95.69;97070.34;6418778;46;20297;-70
2021/10/19 07:16:32;;;;;;;2.63;2.42;;;;;;;8.70;94.02;97078.97;6377142;46;20160;-71
2021/10/19 07:21:38;;;;;;;3.28;2.70;;;;;;;9.10;92.86;97063.75;6387151;46;20236;-71
2021/10/19 07:26:41;;;;;;;2.65;2.42;;;;;;;9.35;92.33;97055.59;6405727;46;20884;-70
2021/10/19 07:31:43;;;;;;;3.20;2.70;;;;;;;9.69;92.25;97074.31;6418242;46;20090;-70
2021/10/19 07:36:46;;;;;;;5.22;2.72;;;;;;;9.88;90.80;97065.06;6417372;46;20292;-69
2021/10/19 07:41:49;;;;;;;3.33;2.90;;;;;;;10.13;92.08;97072.66;6433088;46;20506;-68
2021/10/19 07:46:52;;;;;;;3.10;2.80;;;;;;;10.49;91.44;97078.59;6416949;46;20124;-70
2021/10/19 07:51:55;;;;;;;4.53;2.40;;;;;;;10.84;89.59;97085.00;6418276;46;20104;-70
2021/10/19 07:56:57;;;;;;;3.28;2.97;;;;;;;10.39;90.08;97088.03;6406001;46;20094;-70
2021/10/19 08:02:01;;;;;;;4.07;2.80;;;;;;;10.78;90.20;97089.53;6419077;46;20817;-72
2021/10/19 08:07:03;;;;;;;3.45;2.47;;;;;;;11.18;89.01;97093.31;6431470;46;20095;-71
2021/10/19 08:12:06;;;;;;;6.60;2.95;;;;;;;11.40;88.55;97112.72;6418991;46;20517;-70
2021/10/19 08:17:08;;;;;;;3.15;2.70;;;;;;;11.53;89.20;97122.50;6427139;46;20094;-69
2021/10/19 08:22:10;;;;;;;4.63;2.90;;;;;;;11.89;87.34;97127.59;6416336;46;20195;-71
2021/10/19 08:27:13;;;;;;;2.92;2.63;;;;;;;12.03;86.47;97118.00;6404513;46;20217;-70
2021/10/19 08:32:16;;;;;;;8.68;2.75;;;;;;;12.19;84.38;97117.75;6417733;46;20700;-71
2021/10/19 08:37:19;;;;;;;6.38;3.15;;;;;;;12.05;85.54;97115.53;6405934;46;20192;-70
2021/10/19 08:42:21;;;;;;;5.53;2.70;;;;;;;11.89;87.10;97122.06;6421596;46;20200;-70
2021/10/19 08:47:24;;;;;;;3.83;2.42;;;;;;;11.67;89.24;97123.25;6439567;46;20086;-70
2021/10/19 08:52:27;;;;;;;2.72;2.25;;;;;;;11.53;92.22;97113.47;6419997;46;20082;-71
2021/10/19 08:57:30;;;;;;;3.45;2.92;;;;;;;11.49;91.85;97127.41;6415322;46;20213;-71
2021/10/19 09:02:40;;;;;;;2.65;2.45;;;;;;;11.67;94.27;97123.25;6429687;46;20102;-70
2021/10/19 09:07:59;;;;;;;3.03;2.53;;;;;;;11.88;91.29;97122.50;6404348;46;20086;-70
2021/10/19 09:13:07;;;;;;;4.60;2.80;;;;;;;11.89;91.97;97121.28;6416795;46;20090;-70
2021/10/19 09:18:12;;;;;;;5.25;3.00;;;;;;;12.36;90.25;97127.41;6416621;46;20096;-70
2021/10/19 09:23:18;;;;;;;5.63;2.60;;;;;;;12.46;87.32;97125.47;6417134;46;20086;-70
2021/10/19 09:28:31;;;;;;;3.15;2.40;;;;;;;12.69;86.94;97127.69;6416432;46;20192;-70
2021/10/19 09:33:34;;;;;;;6.50;2.60;;;;;;;12.81;87.11;97121.28;6429891;46;20432;-70
2021/10/19 09:38:47;;;;;;;5.20;2.67;;;;;;;12.98;82.91;97123.31;6425072;46;20286;-71
2021/10/19 09:43:49;;;;;;;3.08;2.60;;;;;;;13.38;84.29;97123.28;6417120;46;20081;-70
2021/10/19 09:48:54;;;;;;;8.10;2.55;;;;;;;13.83;82.48;97130.84;6416816;46;20085;-70
2021/10/19 09:53:56;;;;;;;9.27;2.72;;;;;;;13.68;82.93;97131.94;6429455;46;20175;-70
2021/10/19 09:58:59;;;;;;;5.75;2.95;;;;;;;13.90;82.31;97135.31;6414701;46;20195;-71
2021/10/19 10:04:02;;;;;;;5.35;2.35;;;;;;;13.75;82.90;97145.53;6416296;46;20086;-71
2021/10/19 10:09:05;;;;;;;2.67;2.47;;;;;;;13.95;80.72;97132.72;6415733;46;20278;-70
2021/10/19 10:14:08;;;;;;;3.63;2.72;;;;;;;14.05;79.16;97125.88;6403122;46;20086;-70
2021/10/19 10:19:13;;;;;;;7.10;2.60;;;;;;;14.43;81.83;97122.56;6429905;46;20108;-70
2021/10/19 10:24:29;;;;;;;7.65;3.40;;;;;;;14.28;81.38;97130.00;6448107;46;20157;-70
2021/10/19 10:29:42;;;;;;;6.55;2.90;;;;;;;14.29;80.62;97129.56;6451759;46;20462;-71
2021/10/19 10:34:44;;;;;;;5.10;2.83;;;;;;;14.40;81.83;97117.97;6406108;46;20285;-70
2021/10/19 10:39:47;;;;;;;2.63;2.42;;;;;;;14.62;80.80;97117.72;6416476;46;20237;-71
2021/10/19 10:44:49;;;;;;;4.70;2.65;;;;;;;14.90;80.35;97127.50;6404403;46;20132;-70
2021/10/19 10:49:53;;;;;;;5.07;3.17;;;;;;;15.44;77.65;97124.44;6403418;46;20202;-70
2021/10/19 10:54:56;;;;;;;8.25;2.72;;;;;;;15.74;76.45;97116.91;6416562;46;20091;-72
2021/10/19 11:00:03;;;;;;;8.80;2.80;;;;;;;15.54;78.35;97111.19;6431145;46;20684;-70
2021/10/19 11:05:06;;;;;;;6.03;2.55;;;;;;;15.76;76.40;97097.72;6431125;46;20240;-70
2021/10/19 11:10:15;;;;;;;4.45;2.95;;;;;;;16.63;73.13;97082.22;6405503;46;20178;-70
2021/10/19 11:15:18;;;;;;;3.58;2.92;;;;;;;16.80;72.93;97072.84;6404927;46;20091;-69
2021/10/19 11:20:22;;;;;;;9.77;2.90;;;;;;;16.61;75.62;97088.31;6405201;46;20677;-73
2021/10/19 11:25:25;;;;;;;5.55;3.00;;;;;;;16.61;73.01;97066.00;6405614;46;20312;-72
2021/10/19 11:30:27;;;;;;;4.28;2.83;;;;;;;16.54;75.99;97083.13;6451093;46;20077;-73
2021/10/19 11:35:30;;;;;;;5.60;3.10;;;;;;;16.78;70.58;97075.38;6449064;46;20705;-71
2021/10/19 11:40:33;;;;;;;7.78;2.80;;;;;;;16.78;74.67;97075.38;6405902;46;20672;-70
2021/10/19 11:45:35;;;;;;;5.43;3.00;;;;;;;16.61;72.63;97077.16;6417422;46;20225;-72
2021/10/19 11:50:40;;;;;;;4.13;2.88;;;;;;;16.81;69.95;97076.41;6417276;46;20187;-69
2021/10/19 11:55:44;;;;;;;3.85;2.83;;;;;;;16.76;70.44;97069.50;6418634;46;20090;-71
2021/10/19 12:00:51;;;;;;;3.95;2.75;;;;;;;16.97;67.79;97071.09;6427587;46;20095;-70
2021/10/19 12:05:54;;;;;;;5.78;3.17;;;;;;;16.87;67.88;97058.50;6416364;46;20086;-70
2021/10/19 12:10:56;;;;;;;5.65;2.70;;;;;;;17.26;65.72;97067.41;6416216;46;20249;-71
2021/10/19 12:15:59;;;;;;;5.65;3.30;;;;;;;17.46;62.56;97069.44;6417238;46;20090;-71
2021/10/19 12:21:02;;;;;;;10.52;4.30;;;;;;;17.40;62.94;97052.59;6416791;46;20616;-70
2021/10/19 12:26:09;;;;;;;4.32;2.63;;;;;;;17.43;65.92;97045.25;6428864;46;20196;-70
2021/10/19 12:31:11;;;;;;;2.50;2.08;;;;;;;17.55;60.78;97046.97;6403826;46;20241;-71
2021/10/19 12:36:14;;;;;;;13.05;2.00;;;;;;;17.74;58.87;97051.75;6403316;46;20090;-70
2021/10/19 12:41:19;;;;;;;1.90;1.77;;;;;;;17.88;61.61;97052.91;6403094;46;20182;-70
2021/10/19 12:46:24;;;;;;;2.92;1.90;;;;;;;17.95;58.45;97041.28;6414673;46;20575;-71
2021/10/19 12:51:27;;;;;;;5.63;2.35;;;;;;;18.08;55.94;97038.09;6414867;46;20843;-70
2021/10/19 12:56:33;;;;;;;3.33;2.03;;;;;;;17.57;56.66;97038.84;6416006;46;20704;-71
2021/10/19 13:01:35;;;;;;;4.45;2.00;;;;;;;17.50;59.89;97044.84;6429306;46;20095;-70
2021/10/19 13:06:38;;;;;;;3.70;2.22;;;;;;;17.22;56.72;97036.13;6415476;46;20664;-70
2021/10/19 13:11:42;;;;;;;2.38;2.00;;;;;;;16.76;60.14;97044.38;6416569;46;20460;-71
2021/10/19 13:16:45;;;;;;;3.15;2.33;;;;;;;16.68;58.72;97037.69;6415701;46;20702;-71
2021/10/19 13:21:47;;;;;;;3.75;2.72;;;;;;;16.41;60.22;97041.56;6403676;46;20277;-70
2021/10/19 13:26:50;;;;;;;3.33;2.60;;;;;;;16.37;60.92;97034.66;6428668;46;20695;-70
2021/10/19 13:31:52;;;;;;;2.85;2.40;;;;;;;16.36;62.05;97021.94;6428040;46;20112;-70
2021/10/19 13:36:55;;;;;;;2.90;2.03;;;;;;;16.85;62.11;97013.56;6415131;46;20187;-71
2021/10/19 13:41:57;;;;;;;3.58;2.30;;;;;;;17.12;62.79;97004.75;6426839;46;20537;-70
2021/10/19 13:46:59;;;;;;;3.55;2.00;;;;;;;17.35;59.07;97008.59;6431849;46;20107;-69
2021/10/19 13:52:02;;;;;;;3.05;2.17;;;;;;;17.47;63.76;97006.69;6431472;46;20160;-70
2021/10/19 13:57:06;;;;;;;2.83;2.30;;;;;;;17.15;59.99;97014.97;6417680;46;20735;-69
2021/10/19 14:02:09;;;;;;;4.03;2.45;;;;;;;16.92;62.79;97010.34;6430506;46;20649;-70
2021/10/19 14:07:12;;;;;;;2.42;2.22;;;;;;;16.81;64.60;97007.41;6417338;46;20095;-71
2021/10/19 14:12:14;;;;;;;2.25;2.05;;;;;;;16.80;61.43;96986.31;6417114;46;20310;-69
2021/10/19 14:17:18;;;;;;;3.90;2.30;;;;;;;16.84;61.60;97002.88;6400050;46;20520;-69
2021/10/19 14:22:21;;;;;;;3.80;2.10;;;;;;;16.53;64.26;96986.72;6417577;46;20246;-70
2021/10/19 14:27:24;;;;;;;2.53;2.00;;;;;;;16.24;65.08;96986.75;6430557;46;20094;-70
2021/10/19 14:32:26;;;;;;;2.53;2.28;;;;;;;16.19;67.83;96990.25;6431335;46;20082;-70
2021/10/19 14:37:29;;;;;;;2.40;2.20;;;;;;;16.02;67.16;96997.56;6430352;46;20091;-69
2021/10/19 14:42:31;;;;;;;3.30;2.55;;;;;;;16.09;68.36;96994.38;6430998;46;20193;-71
2021/10/19 14:47:34;;;;;;;6.13;4.13;;;;;;;15.77;68.01;96988.53;6431925;46;20228;-71
2021/10/19 14:52:38;;;;;;;4.32;2.17;;;;;;;15.73;69.42;96989.97;6420144;46;20170;-70
2021/10/19 14:57:43;;;;;;;3.70;2.20;;;;;;;15.54;73.06;96989.38;6406834;46;20097;-70
2021/10/19 15:02:46;;;;;;;2.53;2.30;;;;;;;15.53;73.07;97001.78;6429383;46;20090;-70
2021/10/19 15:07:49;;;;;;;2.22;2.03;;;;;;;15.50;72.85;96990.81;6405292;46;20660;-71
2021/10/19 15:12:51;;;;;;;3.60;2.45;;;;;;;15.61;71.23;96991.00;6417651;46;20086;-69
2021/10/19 15:17:54;;;;;;;4.15;2.03;;;;;;;15.61;72.90;96980.66;6418512;46;20085;-71
2021/10/19 15:22:57;;;;;;;6.45;2.10;;;;;;;15.60;71.74;96978.34;6407959;46;20230;-70
2021/10/19 15:28:00;;;;;;;3.05;2.33;;;;;;;15.57;71.90;96970.94;6432301;46;21032;-69
2021/10/19 15:33:02;;;;;;;2.20;2.00;;;;;;;15.40;73.05;96961.50;6428934;46;20700;-69
2021/10/19 15:38:05;;;;;;;2.63;1.83;;;;;;;15.15;76.35;96979.50;6440908;46;20104;-72
2021/10/19 15:43:07;;;;;;;3.97;2.10;;;;;;;15.15;75.52;96959.25;6429889;46;20081;-71
2021/10/19 15:48:11;;;;;;;6.95;2.30;;;;;;;15.27;75.58;96955.41;6406658;46;20147;-69
2021/10/19 15:53:13;;;;;;;5.70;1.98;;;;;;;15.32;73.43;96949.19;6405574;46;20459;-71
2021/10/19 15:58:16;;;;;;;2.50;1.98;;;;;;;15.25;72.87;96952.34;6427821;46;20228;-70
2021/10/19 16:03:18;;;;;;;3.15;2.13;;;;;;;15.10;74.06;96957.91;6429344;46;20124;-72
2021/10/19 16:08:21;;;;;;;2.85;2.00;;;;;;;15.06;74.62;96946.94;6452959;46;20112;-71
2021/10/19 16:13:24;;;;;;;1.73;1.58;;;;;;;14.90;74.97;96957.75;6433357;46;20121;-71
2021/10/19 16:18:27;;;;;;;2.13;1.88;;;;;;;14.86;73.88;96957.13;6417760;46;20094;-71
2021/10/19 16:23:30;;;;;;;2.55;1.95;;;;;;;14.89;73.60;96956.97;6418947;46;20700;-71
2021/10/19 16:28:33;;;;;;;1.70;1.60;;;;;;;14.94;72.99;96950.75;6405304;46;20086;-71
2021/10/19 16:33:35;;;;;;;1.80;1.52;;;;;;;15.09;69.69;96959.13;6429774;46;20191;-69
2021/10/19 16:38:57;;;;;;;3.25;1.85;;;;;;;15.26;67.52;96957.44;6430793;46;20090;-71
2021/10/19 16:44:00;;;;;;;7.95;2.03;;;;;;;15.55;63.79;96948.38;6428563;46;20709;-70
2021/10/19 16:49:04;;;;;;;2.05;1.42;;;;;;;15.91;63.08;96952.78;6430291;46;20085;-71
2021/10/19 16:54:07;;;;;;;4.25;1.13;;;;;;;15.78;66.31;96956.63;6429725;46;20086;-72
2021/10/19 16:59:09;;;;;;;4.57;1.10;;;;;;;15.75;65.85;96946.44;6417843;46;20181;-74
2021/10/19 17:04:12;;;;;;;1.45;0.95;;;;;;;15.80;64.81;96953.38;6429825;46;20108;-71
2021/10/19 17:09:14;;;;;;;1.77;1.20;;;;;;;15.74;66.52;96950.47;6430111;46;20538;-74
2021/10/19 17:19:52;;;;;;;0.77;0.77;;;;;;;15.60;67.55;96951.25;6399099;46;20754;-71
2021/10/19 17:24:55;;;;;;;0.90;0.90;;;;;;;15.51;69.56;96942.22;6428475;46;20094;-73
2021/10/19 17:29:57;;;;;;;3.22;1.30;;;;;;;15.33;70.99;96936.81;6416655;46;20103;-71
2021/10/19 17:35:00;;;;;;;1.20;1.10;;;;;;;15.26;70.72;96937.97;6424724;46;20099;-68
2021/10/19 17:40:06;;;;;;;0.73;0.73;;;;;;;15.25;71.87;96925.28;6428325;46;20099;-72
2021/10/19 17:45:11;;;;;;;2.00;0.90;;;;;;;15.20;71.41;96914.03;6421795;46;20086;-69
2021/10/19 17:50:16;;;;;;;1.08;0.90;;;;;;;15.26;70.46;96909.34;6424532;46;20094;-70
2021/10/19 17:55:19;;;;;;;1.00;1.00;;;;;;;15.12;71.58;96921.22;6400922;46;20204;-72
2021/10/19 18:00:22;;;;;;;1.95;0.80;;;;;;;15.01;71.85;96910.66;6429322;46;20094;-70
2021/10/19 18:05:25;;;;;;;1.13;1.02;;;;;;;15.11;71.50;96911.34;6420580;46;20103;-71
2021/10/19 18:10:28;;;;;;;0.70;0.70;;;;;;;15.11;70.93;96903.75;6432007;46;20117;-71
2021/10/19 18:15:31;;;;;;;1.35;0.80;;;;;;;15.10;70.77;96907.78;6457158;46;20077;-74
2021/10/19 18:20:37;;;;;;;1.00;1.00;;;;;;;15.10;69.71;96899.44;6466305;45;20098;-73
2021/10/19 18:25:40;;;;;;;1.33;1.00;;;;;;;14.95;69.96;96896.63;6468113;46;20082;-73
2021/10/19 18:30:45;;;;;;;3.75;0.93;;;;;;;14.95;70.22;96893.06;6467467;46;20094;-73
2021/10/19 18:35:47;;;;;;;1.08;0.98;;;;;;;14.93;69.53;96881.63;6462248;45;20103;-71
2021/10/19 18:40:49;;;;;;;3.05;0.90;;;;;;;14.79;71.14;96883.16;6443443;46;20095;-71
2021/10/19 18:45:52;;;;;;;1.15;0.90;;;;;;;14.73;72.55;96878.72;6428192;46;20098;-73
2021/10/19 18:50:55;;;;;;;0.80;0.80;;;;;;;14.60;73.53;96872.66;6437407;46;20161;-70
2021/10/19 18:55:57;;;;;;;2.17;1.20;;;;;;;14.53;74.30;96878.56;6436381;46;20086;-71
2021/10/19 19:01:00;;;;;;;3.13;1.10;;;;;;;14.53;73.66;96876.56;6434981;46;20129;-71
2021/10/19 19:06:03;;;;;;;1.20;1.20;;;;;;;14.48;73.74;96868.88;6421444;46;20103;-73
2021/10/19 19:11:05;;;;;;;1.23;1.10;;;;;;;14.47;73.63;96867.34;6434860;46;20133;-71
2021/10/19 19:16:07;;;;;;;1.23;1.10;;;;;;;14.35;74.43;96865.56;6433909;46;20164;-70
2021/10/19 19:21:13;;;;;;;1.30;1.20;;;;;;;14.41;74.70;96863.66;6434625;46;20090;-69
2021/10/19 19:26:15;;;;;;;1.40;1.30;;;;;;;14.41;76.31;96868.47;6434336;46;20126;-71
2021/10/19 19:31:18;;;;;;;1.05;1.00;;;;;;;14.44;74.83;96873.09;6434368;46;20567;-71
2021/10/19 19:36:22;;;;;;;0.90;0.90;;;;;;;14.66;73.03;96856.84;6434355;46;20086;-71
2021/10/19 19:41:25;;;;;;;1.98;1.30;;;;;;;14.66;72.84;96852.03;6433009;46;20658;-70
2021/10/19 19:46:27;;;;;;;1.40;1.30;;;;;;;14.81;72.58;96840.97;6433947;46;20108;-70
2021/10/19 19:51:30;;;;;;;1.40;1.30;;;;;;;14.73;73.88;96839.78;6433905;46;20103;-72
2021/10/19 19:56:33;;;;;;;1.30;1.20;;;;;;;14.58;74.14;96842.53;6433339;46;20104;-71
2021/10/19 20:01:40;;;;;;;1.40;1.30;;;;;;;14.31;76.73;96843.50;6420771;46;20653;-71
2021/10/19 20:06:43;;;;;;;3.58;1.45;;;;;;;14.19;77.42;96841.72;6433514;46;20555;-70
2021/10/19 20:11:46;;;;;;;1.08;1.02;;;;;;;14.11;78.58;96846.06;6433321;46;20099;-72
2021/10/19 20:16:48;;;;;;;1.85;1.40;;;;;;;14.20;77.98;96843.25;6432901;46;20091;-71
2021/10/19 20:21:51;;;;;;;1.17;1.17;;;;;;;14.31;77.70;96826.81;6419747;46;20511;-72
2021/10/19 20:26:53;;;;;;;5.43;1.20;;;;;;;14.24;78.94;96813.28;6430544;46;20099;-69
2021/10/19 20:31:55;;;;;;;4.32;1.30;;;;;;;14.22;79.60;96817.78;6446228;46;20086;-72
2021/10/19 20:36:58;;;;;;;3.30;1.35;;;;;;;14.25;78.92;96811.25;6454266;46;20127;-71
2021/10/19 20:42:00;;;;;;;2.17;1.48;;;;;;;14.25;80.23;96800.91;6445781;46;20073;-73
2021/10/19 20:47:02;;;;;;;1.20;1.20;;;;;;;14.10;81.24;96805.66;6464314;45;20081;-67
2021/10/19 20:52:06;;;;;;;1.13;1.10;;;;;;;14.16;79.91;96800.97;6434101;46;20543;-72
2021/10/19 20:57:09;;;;;;;2.53;1.30;;;;;;;14.21;81.79;96805.09;6428387;46;20215;-71
2021/10/19 21:02:11;;;;;;;1.88;1.13;;;;;;;14.19;80.59;96799.25;6425864;46;20099;-69
2021/10/19 21:07:14;;;;;;;1.20;1.10;;;;;;;14.12;81.75;96796.81;6433550;46;20086;-71
2021/10/19 21:12:17;;;;;;;1.20;1.20;;;;;;;14.10;82.16;96810.44;6433628;46;20102;-72
2021/10/19 21:17:19;;;;;;;1.40;1.30;;;;;;;14.05;82.76;96789.63;6431356;46;20211;-71
2021/10/19 21:22:22;;;;;;;1.17;1.15;;;;;;;13.98;83.63;96798.31;6433157;46;20078;-70
2021/10/19 21:27:24;;;;;;;1.15;1.13;;;;;;;13.99;83.11;96794.31;6434053;46;20077;-72
2021/10/19 21:32:27;;;;;;;4.60;1.33;;;;;;;13.92;82.57;96789.09;6433217;46;20104;-72
2021/10/19 21:37:29;;;;;;;2.15;1.52;;;;;;;13.89;83.60;96798.38;6432329;46;20095;-70
2021/10/19 21:42:32;;;;;;;1.80;1.48;;;;;;;13.83;84.05;96791.94;6433092;46;20108;-72
2021/10/19 21:47:35;;;;;;;1.30;1.20;;;;;;;13.78;86.00;96784.25;6433229;46;20090;-71
2021/10/19 21:52:38;;;;;;;1.40;1.30;;;;;;;13.60;87.54;96785.13;6433462;46;20094;-72
2021/10/19 21:57:40;;;;;;;1.25;1.25;;;;;;;13.42;88.80;96778.88;6432970;46;20090;-72
2021/10/19 22:02:42;;;;;;;1.40;1.30;;;;;;;13.19;89.50;96774.81;6432933;46;20555;-71
2021/10/19 22:07:46;;;;;;;1.40;1.30;;;;;;;12.92;90.73;96772.88;6431652;46;20194;-71
2021/10/19 22:12:49;;;;;;;1.58;1.48;;;;;;;12.73;92.15;96779.69;6432562;46;20104;-70
2021/10/19 22:17:51;;;;;;;1.35;1.25;;;;;;;12.60;92.80;96770.78;6418744;46;20099;-73
2021/10/19 22:22:54;;;;;;;2.05;1.67;;;;;;;12.60;93.40;96775.53;6433246;46;20116;-72
2021/10/19 22:27:56;;;;;;;3.30;1.50;;;;;;;12.65;94.08;96778.47;6433130;46;20103;-71
2021/10/19 22:32:59;;;;;;;1.40;1.30;;;;;;;12.72;93.65;96772.63;6433424;46;20174;-72
2021/10/19 22:38:01;;;;;;;1.90;1.65;;;;;;;12.66;94.14;96774.47;6433155;46;20090;-72
2021/10/19 22:43:04;;;;;;;1.70;1.60;;;;;;;12.54;94.64;96763.56;6433788;46;20100;-71
2021/10/19 22:48:06;;;;;;;2.25;1.60;;;;;;;12.31;95.21;96764.97;6432879;46;20095;-71
2021/10/19 22:53:09;;;;;;;1.50;1.40;;;;;;;12.10;95.62;96754.78;6433988;46;20493;-71
2021/10/19 22:58:11;;;;;;;2.15;1.67;;;;;;;11.90;96.19;96751.72;6434294;46;20090;-71
2021/10/19 23:03:14;;;;;;;1.30;1.20;;;;;;;11.62;96.88;96741.81;6434660;46;20634;-71
2021/10/19 23:08:16;;;;;;;1.33;1.23;;;;;;;11.46;97.13;96745.63;6434788;46;20098;-70
2021/10/19 23:13:19;;;;;;;2.08;1.48;;;;;;;11.35;97.44;96746.03;6434328;46;20109;-71
2021/10/19 23:18:21;;;;;;;1.55;1.45;;;;;;;11.20;98.24;96745.09;6434619;46;20086;-73
2021/10/19 23:23:24;;;;;;;1.70;1.40;;;;;;;11.11;99.05;96727.69;6434193;46;20082;-72
2021/10/19 23:28:27;;;;;;;1.30;1.20;;;;;;;10.99;99.85;96729.31;6421038;46;20091;-70
2021/10/19 23:33:29;;;;;;;2.22;1.40;;;;;;;10.89;99.75;96725.00;6433864;46;20267;-71
2021/10/19 23:38:32;;;;;;;1.10;1.10;;;;;;;10.78;99.64;96717.13;6433886;46;20099;-72
2021/10/19 23:43:35;;;;;;;1.30;1.20;;;;;;;10.70;100.00;96718.59;6462318;46;20099;-70
2021/10/19 23:48:38;;;;;;;2.67;1.52;;;;;;;10.68;100.00;96704.47;6462531;46;20128;-70
2021/10/19 23:53:40;;;;;;;1.52;1.25;;;;;;;10.60;100.00;96697.69;6457363;46;20082;-76